sensor_id;sensor_type;location;lat;lon;timestamp;P1;durP1;ratioP1;P2;durP2;ratioP2
6947;SDS011;3513;47.664;9.162;2023-04-06T00:00:47;18.40;;;12.20;;
6947;SDS011;3513;47.664;9.162;2023-04-06T00:03:14;21.70;;;11.97;;
6947;SDS011;3513;47.664;9.162;2023-04-06T00:05:40;21.73;;;12.43;;
6947;SDS011;3513;47.664;9.162;2023-04-06T00:08:06;18.10;;;10.93;;
6947;SDS011;3513;47.664;9.162;2023-04-06T00:10:32;19.60;;;11.43;;
6947;SDS011;3513;47.664;9.162;2023-04-06T00:12:58;18.00;;;12.50;;
6947;SDS011;3513;47.664;9.162;2023-04-06T00:15:24;23.73;;;13.30;;
6947;SDS011;3513;47.664;9.162;2023-04-06T00:17:50;22.90;;;10.90;;
6947;SDS011;3513;47.664;9.162;2023-04-06T00:20:16;18.20;;;11.00;;
6947;SDS011;3513;47.664;9.162;2023-04-06T00:22:43;16.07;;;10.00;;
6947;SDS011;3513;47.664;9.162;2023-04-06T00:25:09;14.90;;;10.10;;
6947;SDS011;3513;47.664;9.162;2023-04-06T00:27:37;14.70;;;9.63;;
6947;SDS011;3513;47.664;9.162;2023-04-06T00:30:04;16.10;;;10.50;;
6947;SDS011;3513;47.664;9.162;2023-04-06T00:32:30;14.13;;;9.97;;
6947;SDS011;3513;47.664;9.162;2023-04-06T00:34:56;18.30;;;11.33;;
6947;SDS011;3513;47.664;9.162;2023-04-06T00:37:22;21.10;;;10.87;;
6947;SDS011;3513;47.664;9.162;2023-04-06T00:39:48;19.17;;;10.10;;
6947;SDS011;3513;47.664;9.162;2023-04-06T00:42:16;21.23;;;11.90;;
6947;SDS011;3513;47.664;9.162;2023-04-06T00:44:43;17.23;;;11.10;;
6947;SDS011;3513;47.664;9.162;2023-04-06T00:47:09;12.97;;;10.10;;
6947;SDS011;3513;47.664;9.162;2023-04-06T00:49:35;12.10;;;9.27;;
6947;SDS011;3513;47.664;9.162;2023-04-06T00:52:00;16.73;;;10.30;;
6947;SDS011;3513;47.664;9.162;2023-04-06T00:54:27;16.50;;;11.03;;
6947;SDS011;3513;47.664;9.162;2023-04-06T00:56:53;26.30;;;9.60;;
6947;SDS011;3513;47.664;9.162;2023-04-06T00:59:20;14.87;;;9.13;;
6947;SDS011;3513;47.664;9.162;2023-04-06T01:01:46;18.90;;;11.03;;
6947;SDS011;3513;47.664;9.162;2023-04-06T01:04:11;18.70;;;10.67;;
6947;SDS011;3513;47.664;9.162;2023-04-06T01:06:37;18.70;;;10.73;;
6947;SDS011;3513;47.664;9.162;2023-04-06T01:09:02;20.83;;;10.53;;
6947;SDS011;3513;47.664;9.162;2023-04-06T01:11:28;16.17;;;10.17;;
6947;SDS011;3513;47.664;9.162;2023-04-06T01:13:54;23.57;;;11.00;;
6947;SDS011;3513;47.664;9.162;2023-04-06T01:16:20;20.33;;;10.10;;
6947;SDS011;3513;47.664;9.162;2023-04-06T01:18:45;15.37;;;10.80;;
6947;SDS011;3513;47.664;9.162;2023-04-06T01:21:11;18.53;;;10.60;;
6947;SDS011;3513;47.664;9.162;2023-04-06T01:23:42;15.57;;;9.90;;
6947;SDS011;3513;47.664;9.162;2023-04-06T01:26:10;15.30;;;9.97;;
6947;SDS011;3513;47.664;9.162;2023-04-06T01:28:35;16.00;;;10.57;;
6947;SDS011;3513;47.664;9.162;2023-04-06T01:31:02;21.00;;;11.00;;
6947;SDS011;3513;47.664;9.162;2023-04-06T01:33:28;15.67;;;10.40;;
6947;SDS011;3513;47.664;9.162;2023-04-06T01:35:53;20.10;;;10.43;;
6947;SDS011;3513;47.664;9.162;2023-04-06T01:38:19;14.87;;;10.30;;
6947;SDS011;3513;47.664;9.162;2023-04-06T01:40:45;18.87;;;11.03;;
6947;SDS011;3513;47.664;9.162;2023-04-06T01:43:11;17.50;;;11.10;;
6947;SDS011;3513;47.664;9.162;2023-04-06T01:45:36;14.80;;;10.10;;
6947;SDS011;3513;47.664;9.162;2023-04-06T01:48:03;19.03;;;11.00;;
6947;SDS011;3513;47.664;9.162;2023-04-06T01:50:29;19.90;;;10.90;;
6947;SDS011;3513;47.664;9.162;2023-04-06T01:52:55;20.40;;;11.20;;
6947;SDS011;3513;47.664;9.162;2023-04-06T01:55:20;19.70;;;11.50;;
6947;SDS011;3513;47.664;9.162;2023-04-06T01:57:46;14.83;;;9.33;;
6947;SDS011;3513;47.664;9.162;2023-04-06T02:00:12;22.30;;;11.93;;
6947;SDS011;3513;47.664;9.162;2023-04-06T02:02:41;18.47;;;11.80;;
6947;SDS011;3513;47.664;9.162;2023-04-06T02:05:07;20.73;;;11.67;;
6947;SDS011;3513;47.664;9.162;2023-04-06T02:07:33;16.07;;;10.40;;
6947;SDS011;3513;47.664;9.162;2023-04-06T02:09:59;17.83;;;10.77;;
6947;SDS011;3513;47.664;9.162;2023-04-06T02:12:25;20.40;;;11.97;;
6947;SDS011;3513;47.664;9.162;2023-04-06T02:14:50;18.80;;;11.17;;
6947;SDS011;3513;47.664;9.162;2023-04-06T02:17:16;12.50;;;9.50;;
6947;SDS011;3513;47.664;9.162;2023-04-06T02:19:42;18.00;;;10.43;;
6947;SDS011;3513;47.664;9.162;2023-04-06T02:22:08;15.50;;;10.70;;
6947;SDS011;3513;47.664;9.162;2023-04-06T02:24:34;19.40;;;11.33;;
6947;SDS011;3513;47.664;9.162;2023-04-06T02:27:00;18.77;;;10.93;;
6947;SDS011;3513;47.664;9.162;2023-04-06T02:29:26;20.70;;;10.93;;
6947;SDS011;3513;47.664;9.162;2023-04-06T02:31:51;14.80;;;10.07;;
6947;SDS011;3513;47.664;9.162;2023-04-06T02:34:17;13.50;;;10.10;;
6947;SDS011;3513;47.664;9.162;2023-04-06T02:36:46;20.27;;;12.03;;
6947;SDS011;3513;47.664;9.162;2023-04-06T02:39:12;17.30;;;11.40;;
6947;SDS011;3513;47.664;9.162;2023-04-06T02:41:38;19.27;;;11.43;;
6947;SDS011;3513;47.664;9.162;2023-04-06T02:44:06;15.40;;;10.73;;
6947;SDS011;3513;47.664;9.162;2023-04-06T02:46:33;16.23;;;11.43;;
6947;SDS011;3513;47.664;9.162;2023-04-06T02:48:59;17.67;;;10.53;;
6947;SDS011;3513;47.664;9.162;2023-04-06T02:51:25;18.13;;;11.77;;
6947;SDS011;3513;47.664;9.162;2023-04-06T02:53:51;16.47;;;11.80;;
6947;SDS011;3513;47.664;9.162;2023-04-06T02:56:17;19.20;;;11.57;;
6947;SDS011;3513;47.664;9.162;2023-04-06T02:58:44;20.23;;;12.90;;
6947;SDS011;3513;47.664;9.162;2023-04-06T03:01:09;18.10;;;11.50;;
6947;SDS011;3513;47.664;9.162;2023-04-06T03:03:35;19.30;;;10.93;;
6947;SDS011;3513;47.664;9.162;2023-04-06T03:06:01;20.93;;;11.97;;
6947;SDS011;3513;47.664;9.162;2023-04-06T03:08:26;18.57;;;10.97;;
6947;SDS011;3513;47.664;9.162;2023-04-06T03:10:52;19.27;;;11.77;;
6947;SDS011;3513;47.664;9.162;2023-04-06T03:13:17;19.87;;;12.70;;
6947;SDS011;3513;47.664;9.162;2023-04-06T03:15:43;23.73;;;12.80;;
6947;SDS011;3513;47.664;9.162;2023-04-06T03:18:08;19.93;;;12.20;;
6947;SDS011;3513;47.664;9.162;2023-04-06T03:20:34;21.00;;;11.37;;
6947;SDS011;3513;47.664;9.162;2023-04-06T03:23:00;21.27;;;12.70;;
6947;SDS011;3513;47.664;9.162;2023-04-06T03:25:25;16.17;;;11.03;;
6947;SDS011;3513;47.664;9.162;2023-04-06T03:27:51;18.00;;;11.60;;
6947;SDS011;3513;47.664;9.162;2023-04-06T03:30:17;20.47;;;12.50;;
6947;SDS011;3513;47.664;9.162;2023-04-06T03:32:43;17.50;;;11.97;;
6947;SDS011;3513;47.664;9.162;2023-04-06T03:35:09;27.83;;;12.10;;
6947;SDS011;3513;47.664;9.162;2023-04-06T03:37:35;18.67;;;12.27;;
6947;SDS011;3513;47.664;9.162;2023-04-06T03:40:01;17.60;;;11.20;;
6947;SDS011;3513;47.664;9.162;2023-04-06T03:42:27;23.63;;;11.97;;
6947;SDS011;3513;47.664;9.162;2023-04-06T03:44:53;18.60;;;12.33;;
6947;SDS011;3513;47.664;9.162;2023-04-06T03:47:19;21.67;;;11.83;;
6947;SDS011;3513;47.664;9.162;2023-04-06T03:49:45;14.43;;;10.83;;
6947;SDS011;3513;47.664;9.162;2023-04-06T03:52:10;17.40;;;12.07;;
6947;SDS011;3513;47.664;9.162;2023-04-06T03:54:36;24.50;;;12.30;;
6947;SDS011;3513;47.664;9.162;2023-04-06T03:57:01;19.60;;;12.00;;
6947;SDS011;3513;47.664;9.162;2023-04-06T03:59:27;14.70;;;11.30;;
6947;SDS011;3513;47.664;9.162;2023-04-06T04:01:53;17.23;;;11.30;;
6947;SDS011;3513;47.664;9.162;2023-04-06T04:04:18;22.03;;;12.70;;
6947;SDS011;3513;47.664;9.162;2023-04-06T04:06:45;16.80;;;11.67;;
6947;SDS011;3513;47.664;9.162;2023-04-06T04:09:11;18.87;;;12.13;;
6947;SDS011;3513;47.664;9.162;2023-04-06T04:11:37;19.50;;;12.17;;
6947;SDS011;3513;47.664;9.162;2023-04-06T04:14:03;19.13;;;11.63;;
6947;SDS011;3513;47.664;9.162;2023-04-06T04:16:28;22.77;;;13.53;;
6947;SDS011;3513;47.664;9.162;2023-04-06T04:18:54;15.17;;;10.93;;
6947;SDS011;3513;47.664;9.162;2023-04-06T04:21:20;23.07;;;12.20;;
6947;SDS011;3513;47.664;9.162;2023-04-06T04:23:46;18.63;;;12.20;;
6947;SDS011;3513;47.664;9.162;2023-04-06T04:26:12;19.87;;;11.87;;
6947;SDS011;3513;47.664;9.162;2023-04-06T04:28:37;23.07;;;14.10;;
6947;SDS011;3513;47.664;9.162;2023-04-06T04:31:03;19.87;;;12.10;;
6947;SDS011;3513;47.664;9.162;2023-04-06T04:33:29;22.53;;;13.70;;
6947;SDS011;3513;47.664;9.162;2023-04-06T04:35:55;20.40;;;12.63;;
6947;SDS011;3513;47.664;9.162;2023-04-06T04:38:20;19.33;;;12.73;;
6947;SDS011;3513;47.664;9.162;2023-04-06T04:40:46;26.90;;;11.90;;
6947;SDS011;3513;47.664;9.162;2023-04-06T04:43:11;19.30;;;11.83;;
6947;SDS011;3513;47.664;9.162;2023-04-06T04:45:37;27.30;;;14.37;;
6947;SDS011;3513;47.664;9.162;2023-04-06T04:48:03;21.77;;;13.87;;
6947;SDS011;3513;47.664;9.162;2023-04-06T04:50:29;45.97;;;15.87;;
6947;SDS011;3513;47.664;9.162;2023-04-06T04:52:55;24.60;;;13.00;;
6947;SDS011;3513;47.664;9.162;2023-04-06T04:55:21;28.90;;;15.17;;
6947;SDS011;3513;47.664;9.162;2023-04-06T04:57:46;30.90;;;15.20;;
6947;SDS011;3513;47.664;9.162;2023-04-06T05:00:12;28.00;;;16.07;;
6947;SDS011;3513;47.664;9.162;2023-04-06T05:02:38;25.90;;;14.18;;
6947;SDS011;3513;47.664;9.162;2023-04-06T05:05:04;24.93;;;13.83;;
6947;SDS011;3513;47.664;9.162;2023-04-06T05:07:30;26.10;;;15.10;;
6947;SDS011;3513;47.664;9.162;2023-04-06T05:09:56;23.17;;;14.50;;
6947;SDS011;3513;47.664;9.162;2023-04-06T05:12:21;23.07;;;13.93;;
6947;SDS011;3513;47.664;9.162;2023-04-06T05:14:47;26.90;;;12.83;;
6947;SDS011;3513;47.664;9.162;2023-04-06T05:17:13;24.83;;;15.57;;
6947;SDS011;3513;47.664;9.162;2023-04-06T05:19:39;34.70;;;15.90;;
6947;SDS011;3513;47.664;9.162;2023-04-06T05:22:04;21.77;;;13.37;;
6947;SDS011;3513;47.664;9.162;2023-04-06T05:24:30;34.10;;;13.60;;
6947;SDS011;3513;47.664;9.162;2023-04-06T05:26:55;45.03;;;15.07;;
6947;SDS011;3513;47.664;9.162;2023-04-06T05:29:21;17.60;;;12.20;;
6947;SDS011;3513;47.664;9.162;2023-04-06T05:31:47;23.17;;;14.00;;
6947;SDS011;3513;47.664;9.162;2023-04-06T05:34:12;25.57;;;13.60;;
6947;SDS011;3513;47.664;9.162;2023-04-06T05:36:38;33.17;;;14.93;;
6947;SDS011;3513;47.664;9.162;2023-04-06T05:39:05;30.90;;;15.50;;
6947;SDS011;3513;47.664;9.162;2023-04-06T05:41:31;35.23;;;15.50;;
6947;SDS011;3513;47.664;9.162;2023-04-06T05:43:57;35.07;;;14.50;;
6947;SDS011;3513;47.664;9.162;2023-04-06T05:46:22;24.40;;;15.07;;
6947;SDS011;3513;47.664;9.162;2023-04-06T05:48:48;27.37;;;15.57;;
6947;SDS011;3513;47.664;9.162;2023-04-06T05:51:14;30.73;;;14.83;;
6947;SDS011;3513;47.664;9.162;2023-04-06T05:53:39;27.33;;;15.10;;
6947;SDS011;3513;47.664;9.162;2023-04-06T05:56:05;28.43;;;16.07;;
6947;SDS011;3513;47.664;9.162;2023-04-06T05:58:31;26.13;;;13.70;;
6947;SDS011;3513;47.664;9.162;2023-04-06T06:00:57;25.40;;;16.90;;
6947;SDS011;3513;47.664;9.162;2023-04-06T06:03:24;25.13;;;15.10;;
6947;SDS011;3513;47.664;9.162;2023-04-06T06:05:50;39.07;;;16.20;;
6947;SDS011;3513;47.664;9.162;2023-04-06T06:08:15;27.63;;;17.53;;
6947;SDS011;3513;47.664;9.162;2023-04-06T06:10:41;24.60;;;15.63;;
6947;SDS011;3513;47.664;9.162;2023-04-06T06:13:07;36.70;;;17.80;;
6947;SDS011;3513;47.664;9.162;2023-04-06T06:15:32;23.20;;;15.53;;
6947;SDS011;3513;47.664;9.162;2023-04-06T06:17:58;28.93;;;16.87;;
6947;SDS011;3513;47.664;9.162;2023-04-06T06:20:24;27.10;;;16.60;;
6947;SDS011;3513;47.664;9.162;2023-04-06T06:22:49;29.93;;;16.97;;
6947;SDS011;3513;47.664;9.162;2023-04-06T06:25:15;27.27;;;15.20;;
6947;SDS011;3513;47.664;9.162;2023-04-06T06:27:41;29.73;;;15.80;;
6947;SDS011;3513;47.664;9.162;2023-04-06T06:30:07;24.87;;;16.43;;
6947;SDS011;3513;47.664;9.162;2023-04-06T06:32:33;28.30;;;16.10;;
6947;SDS011;3513;47.664;9.162;2023-04-06T06:34:59;25.73;;;15.90;;
6947;SDS011;3513;47.664;9.162;2023-04-06T06:37:24;24.33;;;16.60;;
6947;SDS011;3513;47.664;9.162;2023-04-06T06:39:50;26.43;;;15.37;;
6947;SDS011;3513;47.664;9.162;2023-04-06T06:42:16;27.10;;;15.30;;
6947;SDS011;3513;47.664;9.162;2023-04-06T06:44:41;23.63;;;14.23;;
6947;SDS011;3513;47.664;9.162;2023-04-06T06:47:07;29.23;;;16.57;;
6947;SDS011;3513;47.664;9.162;2023-04-06T06:49:32;25.03;;;17.00;;
6947;SDS011;3513;47.664;9.162;2023-04-06T06:51:58;24.63;;;15.67;;
6947;SDS011;3513;47.664;9.162;2023-04-06T06:54:24;22.13;;;14.63;;
6947;SDS011;3513;47.664;9.162;2023-04-06T06:56:49;27.10;;;15.83;;
6947;SDS011;3513;47.664;9.162;2023-04-06T06:59:15;23.40;;;14.10;;
6947;SDS011;3513;47.664;9.162;2023-04-06T07:01:41;24.07;;;16.43;;
6947;SDS011;3513;47.664;9.162;2023-04-06T07:04:07;26.20;;;15.03;;
6947;SDS011;3513;47.664;9.162;2023-04-06T07:06:35;26.17;;;16.60;;
6947;SDS011;3513;47.664;9.162;2023-04-06T07:09:01;22.60;;;14.97;;
6947;SDS011;3513;47.664;9.162;2023-04-06T07:11:28;22.50;;;15.87;;
6947;SDS011;3513;47.664;9.162;2023-04-06T07:13:54;31.27;;;16.70;;
6947;SDS011;3513;47.664;9.162;2023-04-06T07:16:20;26.37;;;15.90;;
6947;SDS011;3513;47.664;9.162;2023-04-06T07:18:46;26.13;;;15.53;;
6947;SDS011;3513;47.664;9.162;2023-04-06T07:21:11;25.63;;;16.60;;
6947;SDS011;3513;47.664;9.162;2023-04-06T07:23:37;32.87;;;17.80;;
6947;SDS011;3513;47.664;9.162;2023-04-06T07:26:03;26.50;;;16.70;;
6947;SDS011;3513;47.664;9.162;2023-04-06T07:28:29;27.30;;;17.23;;
6947;SDS011;3513;47.664;9.162;2023-04-06T07:30:54;33.57;;;17.10;;
6947;SDS011;3513;47.664;9.162;2023-04-06T07:33:20;22.40;;;16.07;;
6947;SDS011;3513;47.664;9.162;2023-04-06T07:35:46;27.70;;;18.53;;
6947;SDS011;3513;47.664;9.162;2023-04-06T07:38:12;28.87;;;15.83;;
6947;SDS011;3513;47.664;9.162;2023-04-06T07:40:37;26.20;;;15.90;;
6947;SDS011;3513;47.664;9.162;2023-04-06T07:43:03;25.80;;;16.40;;
6947;SDS011;3513;47.664;9.162;2023-04-06T07:45:29;23.00;;;14.10;;
6947;SDS011;3513;47.664;9.162;2023-04-06T07:47:54;31.30;;;17.87;;
6947;SDS011;3513;47.664;9.162;2023-04-06T07:50:20;27.23;;;15.70;;
6947;SDS011;3513;47.664;9.162;2023-04-06T07:52:46;22.33;;;13.93;;
6947;SDS011;3513;47.664;9.162;2023-04-06T07:55:12;29.50;;;15.77;;
6947;SDS011;3513;47.664;9.162;2023-04-06T07:57:37;27.73;;;15.43;;
6947;SDS011;3513;47.664;9.162;2023-04-06T08:00:03;26.23;;;15.57;;
6947;SDS011;3513;47.664;9.162;2023-04-06T08:02:31;22.40;;;15.57;;
6947;SDS011;3513;47.664;9.162;2023-04-06T08:04:57;27.53;;;16.20;;
6947;SDS011;3513;47.664;9.162;2023-04-06T08:07:23;24.90;;;14.80;;
6947;SDS011;3513;47.664;9.162;2023-04-06T08:09:48;22.27;;;14.60;;
6947;SDS011;3513;47.664;9.162;2023-04-06T08:12:14;24.37;;;14.80;;
6947;SDS011;3513;47.664;9.162;2023-04-06T08:14:40;18.70;;;13.43;;
6947;SDS011;3513;47.664;9.162;2023-04-06T08:17:05;22.10;;;12.80;;
6947;SDS011;3513;47.664;9.162;2023-04-06T08:19:31;18.20;;;12.87;;
6947;SDS011;3513;47.664;9.162;2023-04-06T08:21:57;22.90;;;14.93;;
6947;SDS011;3513;47.664;9.162;2023-04-06T08:24:22;21.07;;;13.57;;
6947;SDS011;3513;47.664;9.162;2023-04-06T08:26:48;20.50;;;13.27;;
6947;SDS011;3513;47.664;9.162;2023-04-06T08:29:14;18.40;;;12.40;;
6947;SDS011;3513;47.664;9.162;2023-04-06T08:31:41;25.40;;;14.00;;
6947;SDS011;3513;47.664;9.162;2023-04-06T08:34:06;20.73;;;13.20;;
6947;SDS011;3513;47.664;9.162;2023-04-06T08:36:32;18.93;;;11.90;;
6947;SDS011;3513;47.664;9.162;2023-04-06T08:38:58;19.70;;;12.87;;
6947;SDS011;3513;47.664;9.162;2023-04-06T08:41:25;27.83;;;13.50;;
6947;SDS011;3513;47.664;9.162;2023-04-06T08:46:23;30.43;;;15.23;;
6947;SDS011;3513;47.664;9.162;2023-04-06T08:48:55;22.73;;;13.90;;
6947;SDS011;3513;47.664;9.162;2023-04-06T08:51:25;24.93;;;13.50;;
6947;SDS011;3513;47.664;9.162;2023-04-06T08:53:52;22.27;;;14.17;;
6947;SDS011;3513;47.664;9.162;2023-04-06T08:56:21;19.03;;;13.80;;
6947;SDS011;3513;47.664;9.162;2023-04-06T08:58:48;24.70;;;14.70;;
6947;SDS011;3513;47.664;9.162;2023-04-06T09:01:15;23.20;;;13.17;;
6947;SDS011;3513;47.664;9.162;2023-04-06T09:03:43;22.13;;;14.07;;
6947;SDS011;3513;47.664;9.162;2023-04-06T09:06:09;29.73;;;13.67;;
6947;SDS011;3513;47.664;9.162;2023-04-06T09:08:38;23.00;;;14.13;;
6947;SDS011;3513;47.664;9.162;2023-04-06T09:11:05;20.57;;;14.80;;
6947;SDS011;3513;47.664;9.162;2023-04-06T09:13:31;21.93;;;15.70;;
6947;SDS011;3513;47.664;9.162;2023-04-06T09:16:08;23.27;;;13.43;;
6947;SDS011;3513;47.664;9.162;2023-04-06T09:18:34;19.90;;;12.77;;
6947;SDS011;3513;47.664;9.162;2023-04-06T09:21:03;17.33;;;12.80;;
6947;SDS011;3513;47.664;9.162;2023-04-06T09:23:30;22.90;;;14.83;;
6947;SDS011;3513;47.664;9.162;2023-04-06T09:31:22;57.63;;;27.77;;
6947;SDS011;3513;47.664;9.162;2023-04-06T09:34:00;22.60;;;13.10;;
6947;SDS011;3513;47.664;9.162;2023-04-06T09:36:29;22.27;;;14.90;;
6947;SDS011;3513;47.664;9.162;2023-04-06T09:38:57;25.00;;;13.77;;
6947;SDS011;3513;47.664;9.162;2023-04-06T09:41:29;19.93;;;12.80;;
6947;SDS011;3513;47.664;9.162;2023-04-06T09:44:06;23.57;;;13.10;;
6947;SDS011;3513;47.664;9.162;2023-04-06T09:46:34;21.50;;;13.93;;
6947;SDS011;3513;47.664;9.162;2023-04-06T09:49:04;20.93;;;13.60;;
6947;SDS011;3513;47.664;9.162;2023-04-06T09:51:32;22.03;;;13.90;;
6947;SDS011;3513;47.664;9.162;2023-04-06T09:54:06;27.80;;;13.60;;
6947;SDS011;3513;47.664;9.162;2023-04-06T09:59:31;27.57;;;13.63;;
6947;SDS011;3513;47.664;9.162;2023-04-06T10:02:32;16.57;;;11.30;;
6947;SDS011;3513;47.664;9.162;2023-04-06T10:04:56;16.10;;;11.43;;
6947;SDS011;3513;47.664;9.162;2023-04-06T10:07:27;19.53;;;13.13;;
6947;SDS011;3513;47.664;9.162;2023-04-06T10:09:53;20.20;;;13.10;;
6947;SDS011;3513;47.664;9.162;2023-04-06T10:12:20;21.43;;;12.90;;
6947;SDS011;3513;47.664;9.162;2023-04-06T10:14:46;19.37;;;11.57;;
6947;SDS011;3513;47.664;9.162;2023-04-06T10:17:12;22.03;;;13.30;;
6947;SDS011;3513;47.664;9.162;2023-04-06T10:19:46;23.13;;;12.97;;
6947;SDS011;3513;47.664;9.162;2023-04-06T10:25:08;21.50;;;13.50;;
6947;SDS011;3513;47.664;9.162;2023-04-06T10:27:34;19.40;;;12.87;;
6947;SDS011;3513;47.664;9.162;2023-04-06T10:30:03;21.23;;;13.03;;
6947;SDS011;3513;47.664;9.162;2023-04-06T10:32:35;22.83;;;14.23;;
6947;SDS011;3513;47.664;9.162;2023-04-06T10:35:05;24.83;;;13.27;;
6947;SDS011;3513;47.664;9.162;2023-04-06T10:37:45;22.47;;;14.00;;
6947;SDS011;3513;47.664;9.162;2023-04-06T10:40:27;25.97;;;13.17;;
6947;SDS011;3513;47.664;9.162;2023-04-06T10:42:54;17.73;;;12.33;;
6947;SDS011;3513;47.664;9.162;2023-04-06T10:45:24;18.67;;;12.50;;
6947;SDS011;3513;47.664;9.162;2023-04-06T10:47:54;20.43;;;13.10;;
6947;SDS011;3513;47.664;9.162;2023-04-06T10:50:20;20.10;;;12.70;;
6947;SDS011;3513;47.664;9.162;2023-04-06T10:52:47;19.03;;;11.47;;
6947;SDS011;3513;47.664;9.162;2023-04-06T10:55:27;21.07;;;10.97;;
6947;SDS011;3513;47.664;9.162;2023-04-06T10:57:54;21.00;;;12.80;;
6947;SDS011;3513;47.664;9.162;2023-04-06T11:00:20;26.80;;;14.20;;
6947;SDS011;3513;47.664;9.162;2023-04-06T11:02:46;24.40;;;14.90;;
6947;SDS011;3513;47.664;9.162;2023-04-06T11:05:12;27.47;;;14.43;;
6947;SDS011;3513;47.664;9.162;2023-04-06T11:07:39;20.30;;;12.47;;
6947;SDS011;3513;47.664;9.162;2023-04-06T11:10:05;23.33;;;12.17;;
6947;SDS011;3513;47.664;9.162;2023-04-06T11:12:31;22.50;;;13.10;;
6947;SDS011;3513;47.664;9.162;2023-04-06T11:14:58;21.47;;;14.20;;
6947;SDS011;3513;47.664;9.162;2023-04-06T11:17:29;21.03;;;13.20;;
6947;SDS011;3513;47.664;9.162;2023-04-06T11:19:56;16.37;;;8.70;;
6947;SDS011;3513;47.664;9.162;2023-04-06T11:22:22;13.40;;;8.10;;
6947;SDS011;3513;47.664;9.162;2023-04-06T11:24:49;21.60;;;9.30;;
6947;SDS011;3513;47.664;9.162;2023-04-06T11:27:15;12.17;;;7.47;;
6947;SDS011;3513;47.664;9.162;2023-04-06T11:29:42;14.20;;;9.03;;
6947;SDS011;3513;47.664;9.162;2023-04-06T11:32:08;14.13;;;7.40;;
6947;SDS011;3513;47.664;9.162;2023-04-06T11:34:35;18.80;;;8.30;;
6947;SDS011;3513;47.664;9.162;2023-04-06T11:37:02;14.57;;;7.77;;
6947;SDS011;3513;47.664;9.162;2023-04-06T11:39:32;15.80;;;8.60;;
6947;SDS011;3513;47.664;9.162;2023-04-06T11:42:08;18.70;;;8.47;;
6947;SDS011;3513;47.664;9.162;2023-04-06T11:47:05;13.77;;;8.00;;
6947;SDS011;3513;47.664;9.162;2023-04-06T11:49:33;10.27;;;7.13;;
6947;SDS011;3513;47.664;9.162;2023-04-06T11:52:01;11.23;;;6.63;;
6947;SDS011;3513;47.664;9.162;2023-04-06T11:54:31;10.77;;;7.17;;
6947;SDS011;3513;47.664;9.162;2023-04-06T11:57:02;13.40;;;7.07;;
6947;SDS011;3513;47.664;9.162;2023-04-06T11:59:29;8.10;;;6.30;;
6947;SDS011;3513;47.664;9.162;2023-04-06T12:01:56;12.00;;;5.87;;
6947;SDS011;3513;47.664;9.162;2023-04-06T12:04:22;11.20;;;6.87;;
6947;SDS011;3513;47.664;9.162;2023-04-06T12:06:48;11.63;;;7.13;;
6947;SDS011;3513;47.664;9.162;2023-04-06T12:09:13;13.23;;;7.13;;
6947;SDS011;3513;47.664;9.162;2023-04-06T12:11:40;13.47;;;7.23;;
6947;SDS011;3513;47.664;9.162;2023-04-06T12:14:06;13.23;;;7.37;;
6947;SDS011;3513;47.664;9.162;2023-04-06T12:16:32;18.37;;;7.00;;
6947;SDS011;3513;47.664;9.162;2023-04-06T12:18:59;10.70;;;7.30;;
6947;SDS011;3513;47.664;9.162;2023-04-06T12:21:26;13.20;;;6.87;;
6947;SDS011;3513;47.664;9.162;2023-04-06T12:23:53;13.07;;;6.90;;
6947;SDS011;3513;47.664;9.162;2023-04-06T12:26:19;10.87;;;6.63;;
6947;SDS011;3513;47.664;9.162;2023-04-06T12:28:45;11.10;;;6.10;;
6947;SDS011;3513;47.664;9.162;2023-04-06T12:31:17;14.10;;;7.60;;
6947;SDS011;3513;47.664;9.162;2023-04-06T12:33:46;10.00;;;6.83;;
6947;SDS011;3513;47.664;9.162;2023-04-06T12:36:13;8.67;;;5.73;;
6947;SDS011;3513;47.664;9.162;2023-04-06T12:38:40;10.60;;;6.53;;
6947;SDS011;3513;47.664;9.162;2023-04-06T12:41:07;12.50;;;5.90;;
6947;SDS011;3513;47.664;9.162;2023-04-06T12:43:33;10.83;;;6.90;;
6947;SDS011;3513;47.664;9.162;2023-04-06T12:45:58;9.20;;;6.23;;
6947;SDS011;3513;47.664;9.162;2023-04-06T12:48:27;9.70;;;6.37;;
6947;SDS011;3513;47.664;9.162;2023-04-06T12:50:59;15.40;;;8.27;;
6947;SDS011;3513;47.664;9.162;2023-04-06T12:53:26;10.10;;;7.10;;
6947;SDS011;3513;47.664;9.162;2023-04-06T12:55:53;16.70;;;7.80;;
6947;SDS011;3513;47.664;9.162;2023-04-06T12:58:19;11.60;;;6.40;;
6947;SDS011;3513;47.664;9.162;2023-04-06T13:00:46;10.23;;;5.90;;
6947;SDS011;3513;47.664;9.162;2023-04-06T13:03:18;13.40;;;6.83;;
6947;SDS011;3513;47.664;9.162;2023-04-06T13:05:45;12.07;;;5.83;;
6947;SDS011;3513;47.664;9.162;2023-04-06T13:08:12;8.17;;;5.53;;
6947;SDS011;3513;47.664;9.162;2023-04-06T13:10:48;7.77;;;5.37;;
6947;SDS011;3513;47.664;9.162;2023-04-06T13:13:15;8.53;;;5.37;;
6947;SDS011;3513;47.664;9.162;2023-04-06T13:15:42;10.70;;;5.43;;
6947;SDS011;3513;47.664;9.162;2023-04-06T13:18:08;9.10;;;5.57;;
6947;SDS011;3513;47.664;9.162;2023-04-06T13:20:34;7.83;;;5.03;;
6947;SDS011;3513;47.664;9.162;2023-04-06T13:23:00;10.23;;;6.37;;
6947;SDS011;3513;47.664;9.162;2023-04-06T13:25:26;10.17;;;6.40;;
6947;SDS011;3513;47.664;9.162;2023-04-06T13:27:53;11.10;;;6.60;;
6947;SDS011;3513;47.664;9.162;2023-04-06T13:30:18;10.23;;;5.87;;
6947;SDS011;3513;47.664;9.162;2023-04-06T13:32:44;8.40;;;6.30;;
6947;SDS011;3513;47.664;9.162;2023-04-06T13:35:10;9.53;;;6.60;;
6947;SDS011;3513;47.664;9.162;2023-04-06T13:37:36;8.50;;;5.60;;
6947;SDS011;3513;47.664;9.162;2023-04-06T13:40:02;11.40;;;7.33;;
6947;SDS011;3513;47.664;9.162;2023-04-06T13:42:29;14.60;;;6.90;;
6947;SDS011;3513;47.664;9.162;2023-04-06T13:44:55;12.83;;;7.07;;
6947;SDS011;3513;47.664;9.162;2023-04-06T13:47:21;14.97;;;7.90;;
6947;SDS011;3513;47.664;9.162;2023-04-06T13:49:47;13.40;;;6.73;;
6947;SDS011;3513;47.664;9.162;2023-04-06T13:52:12;12.77;;;7.07;;
6947;SDS011;3513;47.664;9.162;2023-04-06T13:54:38;12.50;;;5.83;;
6947;SDS011;3513;47.664;9.162;2023-04-06T13:57:04;12.13;;;6.73;;
6947;SDS011;3513;47.664;9.162;2023-04-06T13:59:36;10.87;;;6.00;;
6947;SDS011;3513;47.664;9.162;2023-04-06T14:02:02;11.80;;;6.57;;
6947;SDS011;3513;47.664;9.162;2023-04-06T14:04:28;11.07;;;6.30;;
6947;SDS011;3513;47.664;9.162;2023-04-06T14:06:54;13.53;;;7.40;;
6947;SDS011;3513;47.664;9.162;2023-04-06T14:09:19;11.60;;;7.30;;
6947;SDS011;3513;47.664;9.162;2023-04-06T14:11:45;11.73;;;6.27;;
6947;SDS011;3513;47.664;9.162;2023-04-06T14:14:11;9.00;;;6.07;;
6947;SDS011;3513;47.664;9.162;2023-04-06T14:16:37;12.93;;;7.77;;
6947;SDS011;3513;47.664;9.162;2023-04-06T14:19:03;12.10;;;7.00;;
6947;SDS011;3513;47.664;9.162;2023-04-06T14:21:28;15.57;;;8.13;;
6947;SDS011;3513;47.664;9.162;2023-04-06T14:23:54;7.77;;;6.20;;
6947;SDS011;3513;47.664;9.162;2023-04-06T14:26:20;14.17;;;6.80;;
6947;SDS011;3513;47.664;9.162;2023-04-06T14:28:46;17.63;;;7.73;;
6947;SDS011;3513;47.664;9.162;2023-04-06T14:31:12;14.57;;;7.07;;
6947;SDS011;3513;47.664;9.162;2023-04-06T14:33:40;14.60;;;7.63;;
6947;SDS011;3513;47.664;9.162;2023-04-06T14:36:06;12.47;;;7.60;;
6947;SDS011;3513;47.664;9.162;2023-04-06T14:38:32;9.37;;;6.83;;
6947;SDS011;3513;47.664;9.162;2023-04-06T14:40:58;10.27;;;6.33;;
6947;SDS011;3513;47.664;9.162;2023-04-06T14:43:23;11.33;;;6.90;;
6947;SDS011;3513;47.664;9.162;2023-04-06T14:45:50;13.73;;;8.43;;
6947;SDS011;3513;47.664;9.162;2023-04-06T14:48:16;14.67;;;7.57;;
6947;SDS011;3513;47.664;9.162;2023-04-06T14:50:51;13.67;;;7.80;;
6947;SDS011;3513;47.664;9.162;2023-04-06T14:53:21;11.30;;;7.80;;
6947;SDS011;3513;47.664;9.162;2023-04-06T14:55:47;10.93;;;6.90;;
6947;SDS011;3513;47.664;9.162;2023-04-06T14:58:16;11.93;;;7.20;;
6947;SDS011;3513;47.664;9.162;2023-04-06T15:00:42;9.67;;;6.87;;
6947;SDS011;3513;47.664;9.162;2023-04-06T15:03:07;16.43;;;7.40;;
6947;SDS011;3513;47.664;9.162;2023-04-06T15:05:33;12.07;;;8.30;;